Time,TemperatureF,DewpointF,PressureIn,WindDirection,WindDirectionDegrees,WindSpeedMPH,WindSpeedGustMPH,Humidity,HourlyPrecipIn,Conditions,Clouds,dailyrainin,SoftwareType,DateUTC
2013-03-03 00:05:00,32.4,23.7,29.65,SE,135,0.0,-999.0,70,-99.99,,,0.00,Acu-Link.com,2013-03-03 05:05:00,
2013-03-03 00:20:00,32.0,22.7,29.65,NNE,22,1.1,-999.0,68,-99.99,,,0.00,Acu-Link.com,2013-03-03 05:20:00,
2013-03-03 00:35:00,31.5,22.5,29.65,NNE,22,2.2,-999.0,69,-99.99,,,0.00,Acu-Link.com,2013-03-03 05:35:00,
2013-03-03 00:50:00,30.9,22.3,29.66,NNE,22,2.2,-999.0,70,-99.99,,,0.00,Acu-Link.com,2013-03-03 05:50:00,
2013-03-03 01:06:00,30.7,22.4,29.66,WNW,292,0.0,-999.0,71,-99.99,,,0.00,Acu-Link.com,2013-03-03 06:06:00,
2013-03-03 01:21:00,30.2,21.9,29.67,WNW,292,0.0,-999.0,71,-99.99,,,0.00,Acu-Link.com,2013-03-03 06:21:00,
2013-03-03 01:36:00,29.7,22.1,29.66,NW,315,0.0,-999.0,73,-99.99,,,0.00,Acu-Link.com,2013-03-03 06:36:00,
2013-03-03 01:51:00,29.1,21.5,29.67,SE,135,2.2,-999.0,73,-99.99,,,0.00,Acu-Link.com,2013-03-03 06:51:00,
2013-03-03 02:06:00,29.3,22.1,29.67,North,0,1.1,-999.0,74,-99.99,,,0.00,Acu-Link.com,2013-03-03 07:06:00,
2013-03-03 02:22:00,29.1,21.9,29.66,NNW,337,1.7,-999.0,74,-99.99,,,0.00,Acu-Link.com,2013-03-03 07:22:00,
2013-03-03 02:37:00,29.1,21.9,29.65,WSW,247,0.0,-999.0,74,-99.99,,,0.00,Acu-Link.com,2013-03-03 07:37:00,
2013-03-03 02:52:00,29.1,21.9,29.65,WSW,247,4.2,-999.0,74,-99.99,,,0.00,Acu-Link.com,2013-03-03 07:52:00,
2013-03-03 03:07:00,28.6,21.7,29.65,WNW,292,3.2,-999.0,75,-99.99,,,0.00,Acu-Link.com,2013-03-03 08:07:00,
2013-03-03 03:23:00,29.1,21.5,29.65,NNE,22,2.7,-999.0,73,-99.99,,,0.00,Acu-Link.com,2013-03-03 08:23:00,
2013-03-03 03:38:00,28.9,20.7,29.65,North,0,1.1,-999.0,71,-99.99,,,0.00,Acu-Link.com,2013-03-03 08:38:00,
2013-03-03 03:53:00,28.4,20.5,29.65,SW,225,2.7,-999.0,72,-99.99,,,0.00,Acu-Link.com,2013-03-03 08:53:00,
2013-03-03 04:18:00,28.2,20.7,29.66,ESE,112,2.2,-999.0,73,-99.99,,,0.00,Acu-Link.com,2013-03-03 09:18:00,
2013-03-03 04:34:00,28.0,19.8,29.66,WSW,247,1.7,-999.0,71,-99.99,,,0.00,Acu-Link.com,2013-03-03 09:34:00,
2013-03-03 04:49:00,28.0,20.2,29.67,NNE,22,2.7,-999.0,72,-99.99,,,0.00,Acu-Link.com,2013-03-03 09:49:00,
2013-03-03 05:04:00,27.9,20.1,29.67,West,270,2.7,-999.0,72,-99.99,,,0.00,Acu-Link.com,2013-03-03 10:04:00,
2013-03-03 05:19:00,27.7,19.9,29.66,West,270,2.7,-999.0,72,-99.99,,,0.00,Acu-Link.com,2013-03-03 10:19:00,
2013-03-03 05:34:00,27.7,19.5,29.67,WNW,292,2.7,-999.0,71,-99.99,,,0.00,Acu-Link.com,2013-03-03 10:34:00,
2013-03-03 05:49:00,27.9,19.1,29.67,North,0,3.2,-999.0,69,-99.99,,,0.00,Acu-Link.com,2013-03-03 10:49:00,
2013-03-03 06:05:00,27.5,18.7,29.67,WNW,292,2.2,-999.0,69,-99.99,,,0.00,Acu-Link.com,2013-03-03 11:05:00,
2013-03-03 06:20:00,27.5,18.7,29.66,NNE,22,2.7,-999.0,69,-99.99,,,0.00,Acu-Link.com,2013-03-03 11:20:00,
2013-03-03 06:35:00,27.5,18.7,29.67,ENE,67,1.1,-999.0,69,-99.99,,,0.00,Acu-Link.com,2013-03-03 11:35:00,
2013-03-03 06:50:00,27.5,18.7,29.67,West,270,2.2,-999.0,69,-99.99,,,0.00,Acu-Link.com,2013-03-03 11:50:00,
2013-03-03 07:06:00,27.3,18.8,29.67,NNW,337,1.7,-999.0,70,-99.99,,,0.00,Acu-Link.com,2013-03-03 12:06:00,
2013-03-03 07:21:00,27.9,19.4,29.67,NNW,337,3.2,-999.0,70,-99.99,,,0.00,Acu-Link.com,2013-03-03 12:21:00,
2013-03-03 07:36:00,28.8,19.9,29.68,SSW,202,2.2,-999.0,69,-99.99,,,0.00,Acu-Link.com,2013-03-03 12:36:00,
2013-03-03 07:51:00,29.3,20.1,29.67,West,270,0.0,-999.0,68,-99.99,,,0.00,Acu-Link.com,2013-03-03 12:51:00,
2013-03-03 08:06:00,30.0,20.4,29.67,East,90,2.2,-999.0,67,-99.99,,,0.00,Acu-Link.com,2013-03-03 13:06:00,
2013-03-03 08:22:00,30.7,20.4,29.67,SSE,157,2.2,-999.0,65,-99.99,,,0.00,Acu-Link.com,2013-03-03 13:22:00,
2013-03-03 08:37:00,30.7,20.0,29.66,North,0,3.7,-999.0,64,-99.99,,,0.00,Acu-Link.com,2013-03-03 13:37:00,
2013-03-03 08:52:00,31.3,20.2,29.65,West,270,1.7,-999.0,63,-99.99,,,0.00,Acu-Link.com,2013-03-03 13:52:00,
2013-03-03 09:07:00,31.6,20.5,29.65,East,90,2.2,-999.0,63,-99.99,,,0.00,Acu-Link.com,2013-03-03 14:07:00,
2013-03-03 09:22:00,32.0,20.9,29.65,ESE,112,3.7,-999.0,63,-99.99,,,0.00,Acu-Link.com,2013-03-03 14:22:00,
2013-03-03 09:38:00,32.4,20.5,29.65,West,270,2.7,-999.0,61,-99.99,,,0.00,Acu-Link.com,2013-03-03 14:38:00,
2013-03-03 09:53:00,32.5,20.2,29.63,WSW,247,2.7,-999.0,60,-99.99,,,0.00,Acu-Link.com,2013-03-03 14:53:00,
2013-03-03 10:08:00,33.1,20.4,29.63,SW,225,3.7,-999.0,59,-99.99,,,0.00,Acu-Link.com,2013-03-03 15:08:00,
2013-03-03 10:23:00,33.8,20.6,29.64,West,270,2.7,-999.0,58,-99.99,,,0.00,Acu-Link.com,2013-03-03 15:23:00,
2013-03-03 10:38:00,35.6,21.5,29.63,East,90,2.7,-999.0,56,-99.99,,,0.00,Acu-Link.com,2013-03-03 15:38:00,
2013-03-03 10:54:00,35.6,21.5,29.64,NNW,337,2.2,-999.0,56,-99.99,,,0.00,Acu-Link.com,2013-03-03 15:54:00,
2013-03-03 11:09:00,34.5,20.4,29.64,NW,315,2.7,-999.0,56,-99.99,,,0.00,Acu-Link.com,2013-03-03 16:09:00,
2013-03-03 11:24:00,35.8,21.7,29.64,South,180,1.7,-999.0,56,-99.99,,,0.00,Acu-Link.com,2013-03-03 16:24:00,
2013-03-03 11:39:00,36.1,21.5,29.63,NW,315,1.7,-999.0,55,-99.99,,,0.00,Acu-Link.com,2013-03-03 16:39:00,
2013-03-03 11:55:00,36.1,21.1,29.62,North,0,4.7,-999.0,54,-99.99,,,0.00,Acu-Link.com,2013-03-03 16:55:00,
2013-03-03 12:10:00,36.5,21.5,29.61,SW,225,3.7,-999.0,54,-99.99,,,0.00,Acu-Link.com,2013-03-03 17:10:00,
2013-03-03 12:25:00,37.8,22.7,29.62,NE,45,1.7,-999.0,54,-99.99,,,0.00,Acu-Link.com,2013-03-03 17:25:00,
2013-03-03 12:40:00,37.2,21.2,29.60,West,270,2.7,-999.0,52,-99.99,,,0.00,Acu-Link.com,2013-03-03 17:40:00,
2013-03-03 12:55:00,37.8,22.2,29.60,West,270,5.3,-999.0,53,-99.99,,,0.00,Acu-Link.com,2013-03-03 17:55:00,
2013-03-03 13:11:00,37.2,21.7,29.59,South,180,5.3,-999.0,53,-99.99,,,0.00,Acu-Link.com,2013-03-03 18:11:00,
2013-03-03 13:26:00,37.2,21.7,29.60,West,270,4.2,-999.0,53,-99.99,,,0.00,Acu-Link.com,2013-03-03 18:26:00,
2013-03-03 13:41:00,37.6,22.0,29.60,WNW,292,3.2,-999.0,53,-99.99,,,0.00,Acu-Link.com,2013-03-03 18:41:00,
2013-03-03 13:56:00,39.7,23.5,29.60,NNW,337,4.7,-999.0,52,-99.99,,,0.00,Acu-Link.com,2013-03-03 18:56:00,
2013-03-03 14:11:00,38.8,23.2,29.59,NW,315,4.7,-999.0,53,-99.99,,,0.00,Acu-Link.com,2013-03-03 19:11:00,
2013-03-03 14:27:00,39.7,23.1,29.59,SSW,202,7.3,-999.0,51,-99.99,,,0.00,Acu-Link.com,2013-03-03 19:27:00,
2013-03-03 14:42:00,38.5,23.3,29.59,NW,315,3.2,-999.0,54,-99.99,,,0.00,Acu-Link.com,2013-03-03 19:42:00,
2013-03-03 14:57:00,39.4,23.7,29.59,West,270,4.7,-999.0,53,-99.99,,,0.00,Acu-Link.com,2013-03-03 19:57:00,
2013-03-03 15:12:00,37.9,22.3,29.58,South,180,6.3,-999.0,53,-99.99,,,0.00,Acu-Link.com,2013-03-03 20:12:00,
2013-03-03 15:27:00,38.7,23.1,29.59,NNE,22,2.7,-999.0,53,-99.99,,,0.00,Acu-Link.com,2013-03-03 20:27:00,
2013-03-03 15:43:00,38.7,23.1,29.59,ENE,67,4.2,-999.0,53,-99.99,,,0.00,Acu-Link.com,2013-03-03 20:43:00,
2013-03-03 15:58:00,38.3,22.7,29.59,North,0,6.8,-999.0,53,-99.99,,,0.00,Acu-Link.com,2013-03-03 20:58:00,
2013-03-03 16:13:00,38.1,22.5,29.59,North,0,2.2,-999.0,53,-99.99,,,0.00,Acu-Link.com,2013-03-03 21:13:00,
2013-03-03 16:28:00,38.1,22.5,29.59,East,90,3.2,-999.0,53,-99.99,,,0.00,Acu-Link.com,2013-03-03 21:28:00,
2013-03-03 16:44:00,37.6,22.9,29.59,NW,315,2.7,-999.0,55,-99.99,,,0.00,Acu-Link.com,2013-03-03 21:44:00,
2013-03-03 16:59:00,36.9,22.3,29.59,West,270,3.7,-999.0,55,-99.99,,,0.00,Acu-Link.com,2013-03-03 21:59:00,
2013-03-03 17:14:00,36.0,21.4,29.60,North,0,4.2,-999.0,55,-99.99,,,0.00,Acu-Link.com,2013-03-03 22:14:00,
2013-03-03 17:29:00,35.4,21.7,29.60,ESE,112,2.2,-999.0,57,-99.99,,,0.00,Acu-Link.com,2013-03-03 22:29:00,
2013-03-03 17:44:00,34.9,21.6,29.60,WSW,247,1.7,-999.0,58,-99.99,,,0.00,Acu-Link.com,2013-03-03 22:44:00,
2013-03-03 18:00:00,34.3,21.5,29.62,SW,225,0.0,-999.0,59,-99.99,,,0.00,Acu-Link.com,2013-03-03 23:00:00,
2013-03-03 18:15:00,33.8,21.0,29.61,SW,225,0.0,-999.0,59,-99.99,,,0.00,Acu-Link.com,2013-03-03 23:15:00,
2013-03-03 18:30:00,33.6,20.8,29.62,SSW,202,2.2,-999.0,59,-99.99,,,0.00,Acu-Link.com,2013-03-03 23:30:00,
2013-03-03 18:45:00,33.4,21.0,29.63,South,180,2.2,-999.0,60,-99.99,,,0.00,Acu-Link.com,2013-03-03 23:45:00,
2013-03-03 19:00:00,33.1,21.1,29.63,WNW,292,0.0,-999.0,61,-99.99,,,0.00,Acu-Link.com,2013-03-04 00:00:00,
2013-03-03 19:16:00,33.1,21.5,29.64,West,270,1.7,-999.0,62,-99.99,,,0.00,Acu-Link.com,2013-03-04 00:16:00,
2013-03-03 19:31:00,33.4,21.4,29.64,ESE,112,2.2,-999.0,61,-99.99,,,0.00,Acu-Link.com,2013-03-04 00:31:00,
2013-03-03 19:46:00,33.4,21.4,29.65,WNW,292,2.2,-999.0,61,-99.99,,,0.00,Acu-Link.com,2013-03-04 00:46:00,
2013-03-03 20:01:00,33.8,21.4,29.65,NNE,22,2.2,-999.0,60,-99.99,,,0.00,Acu-Link.com,2013-03-04 01:01:00,
2013-03-03 20:16:00,33.8,21.4,29.65,WNW,292,1.7,-999.0,60,-99.99,,,0.00,Acu-Link.com,2013-03-04 01:16:00,
2013-03-03 20:32:00,33.3,22.1,29.65,North,0,2.2,-999.0,63,-99.99,,,0.00,Acu-Link.com,2013-03-04 01:32:00,
2013-03-03 20:47:00,33.1,21.5,29.67,ENE,67,1.7,-999.0,62,-99.99,,,0.00,Acu-Link.com,2013-03-04 01:47:00,
2013-03-03 21:02:00,32.9,21.7,29.66,West,270,2.7,-999.0,63,-99.99,,,0.00,Acu-Link.com,2013-03-04 02:02:00,
2013-03-03 21:17:00,32.9,22.1,29.66,West,270,2.2,-999.0,64,-99.99,,,0.00,Acu-Link.com,2013-03-04 02:17:00,
2013-03-03 21:32:00,33.1,22.3,29.67,West,270,2.2,-999.0,64,-99.99,,,0.00,Acu-Link.com,2013-03-04 02:32:00,
2013-03-03 21:48:00,33.1,22.3,29.66,NW,315,2.2,-999.0,64,-99.99,,,0.00,Acu-Link.com,2013-03-04 02:48:00,
2013-03-03 22:03:00,33.3,22.8,29.67,NNW,337,3.7,-999.0,65,-99.99,,,0.00,Acu-Link.com,2013-03-04 03:03:00,
2013-03-03 22:18:00,32.9,22.8,29.66,WNW,292,3.7,-999.0,66,-99.99,,,0.00,Acu-Link.com,2013-03-04 03:18:00,
2013-03-03 22:34:00,32.7,22.6,29.65,SW,225,2.7,-999.0,66,-99.99,,,0.00,Acu-Link.com,2013-03-04 03:34:00,
2013-03-03 22:49:00,32.0,22.7,29.67,North,0,0.0,-999.0,68,-99.99,,,0.00,Acu-Link.com,2013-03-04 03:49:00,
2013-03-03 23:04:00,31.3,22.3,29.67,ESE,112,0.0,-999.0,69,-99.99,,,0.00,Acu-Link.com,2013-03-04 04:04:00,
2013-03-03 23:19:00,30.6,22.0,29.68,SSW,202,1.7,-999.0,70,-99.99,,,0.00,Acu-Link.com,2013-03-04 04:19:00,
2013-03-03 23:34:00,31.6,21.6,29.68,North,0,2.2,-999.0,66,-99.99,,,0.00,Acu-Link.com,2013-03-04 04:34:00,
2013-03-03 23:50:00,31.8,21.4,29.68,WNW,292,2.2,-999.0,65,-99.99,,,0.00,Acu-Link.com,2013-03-04 04:50:00,